sensor_id;sensor_type;location;lat;lon;timestamp;pressure;altitude;pressure_sealevel;temperature;humidity
63946;BME280;50122;56.330;43.838;2022-12-17T00:02:22;102210.06;;;-5.13;78.25
63946;BME280;50122;56.330;43.838;2022-12-17T00:05:07;102227.03;;;-5.00;78.56
63946;BME280;50122;56.330;43.838;2022-12-17T00:07:59;102224.72;;;-4.95;78.51
63946;BME280;50122;56.330;43.838;2022-12-17T00:10:44;102230.03;;;-4.92;78.63
63946;BME280;50122;56.330;43.838;2022-12-17T00:13:29;102229.31;;;-4.90;78.47
63946;BME280;50122;56.330;43.838;2022-12-17T00:16:14;102217.56;;;-5.01;78.58
63946;BME280;50122;56.330;43.838;2022-12-17T00:22:24;102234.34;;;-4.91;77.91
63946;BME280;50122;56.330;43.838;2022-12-17T00:25:09;102216.50;;;-5.04;78.07
63946;BME280;50122;56.330;43.838;2022-12-17T00:27:55;102224.16;;;-5.06;77.97
63946;BME280;50122;56.330;43.838;2022-12-17T00:30:40;102223.13;;;-5.10;78.28
63946;BME280;50122;56.330;43.838;2022-12-17T00:33:26;102241.88;;;-4.96;78.47
63946;BME280;50122;56.330;43.838;2022-12-17T00:36:11;102222.38;;;-5.07;78.34
63946;BME280;50122;56.330;43.838;2022-12-17T00:38:57;102252.59;;;-4.88;78.29
63946;BME280;50122;56.330;43.838;2022-12-17T00:41:42;102235.19;;;-5.09;78.60
63946;BME280;50122;56.330;43.838;2022-12-17T00:44:28;102263.22;;;-4.98;78.31
63946;BME280;50122;56.330;43.838;2022-12-17T00:47:13;102252.44;;;-5.08;78.57
63946;BME280;50122;56.330;43.838;2022-12-17T00:49:58;102256.94;;;-5.03;78.72
63946;BME280;50122;56.330;43.838;2022-12-17T00:52:43;102263.88;;;-5.02;78.19
63946;BME280;50122;56.330;43.838;2022-12-17T00:55:29;102236.66;;;-5.14;78.51
63946;BME280;50122;56.330;43.838;2022-12-17T00:58:14;102260.25;;;-5.06;78.63
63946;BME280;50122;56.330;43.838;2022-12-17T01:01:00;102266.78;;;-5.13;78.24
63946;BME280;50122;56.330;43.838;2022-12-17T01:03:46;102263.09;;;-5.18;78.64
63946;BME280;50122;56.330;43.838;2022-12-17T01:06:33;102248.03;;;-5.27;78.89
63946;BME280;50122;56.330;43.838;2022-12-17T01:09:18;102252.38;;;-5.26;78.66
63946;BME280;50122;56.330;43.838;2022-12-17T01:12:04;102251.97;;;-5.33;78.05
63946;BME280;50122;56.330;43.838;2022-12-17T01:14:49;102223.53;;;-5.51;78.30
63946;BME280;50122;56.330;43.838;2022-12-17T01:17:35;102246.25;;;-5.44;78.44
63946;BME280;50122;56.330;43.838;2022-12-17T01:20:21;102249.69;;;-5.60;77.75
63946;BME280;50122;56.330;43.838;2022-12-17T01:23:07;102242.94;;;-5.58;78.06
63946;BME280;50122;56.330;43.838;2022-12-17T01:25:54;102216.41;;;-5.72;77.89
63946;BME280;50122;56.330;43.838;2022-12-17T01:28:41;102210.06;;;-5.79;78.06
63946;BME280;50122;56.330;43.838;2022-12-17T01:31:26;102216.41;;;-5.72;77.73
63946;BME280;50122;56.330;43.838;2022-12-17T01:34:12;102220.63;;;-5.74;78.16
63946;BME280;50122;56.330;43.838;2022-12-17T01:36:57;102198.47;;;-5.87;78.22
63946;BME280;50122;56.330;43.838;2022-12-17T01:39:43;102214.91;;;-5.85;77.96
63946;BME280;50122;56.330;43.838;2022-12-17T01:42:39;102200.78;;;-5.91;78.07
63946;BME280;50122;56.330;43.838;2022-12-17T01:45:27;102208.84;;;-5.85;78.27
63946;BME280;50122;56.330;43.838;2022-12-17T01:48:16;102197.34;;;-5.92;78.75
63946;BME280;50122;56.330;43.838;2022-12-17T01:51:03;102214.91;;;-5.85;78.47
63946;BME280;50122;56.330;43.838;2022-12-17T01:53:50;102193.56;;;-5.99;78.65
63946;BME280;50122;56.330;43.838;2022-12-17T01:56:40;102210.38;;;-5.89;78.97
63946;BME280;50122;56.330;43.838;2022-12-17T01:59:47;102201.59;;;-5.93;78.76
63946;BME280;50122;56.330;43.838;2022-12-17T02:02:34;102159.25;;;-6.14;79.31
63946;BME280;50122;56.330;43.838;2022-12-17T02:05:22;102190.22;;;-5.98;79.28
63946;BME280;50122;56.330;43.838;2022-12-17T02:08:27;102192.19;;;-5.92;79.11
63946;BME280;50122;56.330;43.838;2022-12-17T02:14:17;102173.34;;;-5.91;79.56
63946;BME280;50122;56.330;43.838;2022-12-17T02:17:07;102164.50;;;-5.96;78.97
63946;BME280;50122;56.330;43.838;2022-12-17T02:20:13;102171.59;;;-5.92;79.18
63946;BME280;50122;56.330;43.838;2022-12-17T02:29:21;102120.75;;;-6.13;79.36
63946;BME280;50122;56.330;43.838;2022-12-17T02:32:11;102140.31;;;-6.00;79.06
63946;BME280;50122;56.330;43.838;2022-12-17T02:34:59;102122.03;;;-6.04;79.21
63946;BME280;50122;56.330;43.838;2022-12-17T02:37:46;102140.50;;;-5.95;79.59
63946;BME280;50122;56.330;43.838;2022-12-17T02:40:33;102138.53;;;-5.84;79.38
63946;BME280;50122;56.330;43.838;2022-12-17T02:43:24;102140.31;;;-5.83;79.51
63946;BME280;50122;56.330;43.838;2022-12-17T02:46:09;102103.06;;;-6.06;78.88
63946;BME280;50122;56.330;43.838;2022-12-17T02:48:55;102082.97;;;-6.14;79.21
63946;BME280;50122;56.330;43.838;2022-12-17T02:51:40;102135.94;;;-5.84;79.52
63946;BME280;50122;56.330;43.838;2022-12-17T02:54:30;102131.66;;;-5.84;79.66
63946;BME280;50122;56.330;43.838;2022-12-17T02:57:16;102123.88;;;-5.85;79.79
63946;BME280;50122;56.330;43.838;2022-12-17T03:00:06;102091.00;;;-6.07;78.87
63946;BME280;50122;56.330;43.838;2022-12-17T03:02:52;102133.69;;;-5.78;79.59
63946;BME280;50122;56.330;43.838;2022-12-17T03:05:38;102127.91;;;-5.74;79.94
63946;BME280;50122;56.330;43.838;2022-12-17T03:08:22;102097.16;;;-5.87;80.07
63946;BME280;50122;56.330;43.838;2022-12-17T03:11:07;102130.84;;;-5.66;79.78
63946;BME280;50122;56.330;43.838;2022-12-17T03:13:53;102132.63;;;-5.65;79.44
63946;BME280;50122;56.330;43.838;2022-12-17T03:16:58;102135.38;;;-5.62;79.72
63946;BME280;50122;56.330;43.838;2022-12-17T03:19:44;102134.41;;;-5.64;79.85
63946;BME280;50122;56.330;43.838;2022-12-17T03:22:30;102134.81;;;-5.73;79.02
63946;BME280;50122;56.330;43.838;2022-12-17T03:25:15;102122.75;;;-5.74;79.41
63946;BME280;50122;56.330;43.838;2022-12-17T03:28:09;102123.88;;;-5.69;79.27
63946;BME280;50122;56.330;43.838;2022-12-17T03:30:57;102129.75;;;-5.71;79.48
63946;BME280;50122;56.330;43.838;2022-12-17T03:33:44;102132.16;;;-5.74;79.34
63946;BME280;50122;56.330;43.838;2022-12-17T03:36:30;102126.03;;;-5.77;79.71
63946;BME280;50122;56.330;43.838;2022-12-17T03:39:15;102135.47;;;-5.77;79.37
63946;BME280;50122;56.330;43.838;2022-12-17T03:42:01;102132.97;;;-5.76;79.26
63946;BME280;50122;56.330;43.838;2022-12-17T03:44:46;102107.38;;;-5.89;79.39
63946;BME280;50122;56.330;43.838;2022-12-17T03:47:31;102138.44;;;-5.69;79.26
63946;BME280;50122;56.330;43.838;2022-12-17T03:50:17;102132.16;;;-5.74;78.94
63946;BME280;50122;56.330;43.838;2022-12-17T03:53:03;102120.25;;;-5.72;79.28
63946;BME280;50122;56.330;43.838;2022-12-17T03:55:50;102123.81;;;-5.70;78.97
63946;BME280;50122;56.330;43.838;2022-12-17T03:58:36;102119.53;;;-5.70;79.09
63946;BME280;50122;56.330;43.838;2022-12-17T04:01:21;102109.38;;;-5.67;78.83
63946;BME280;50122;56.330;43.838;2022-12-17T04:04:08;102105.78;;;-5.70;79.24
63946;BME280;50122;56.330;43.838;2022-12-17T04:06:53;102110.03;;;-5.71;79.38
63946;BME280;50122;56.330;43.838;2022-12-17T04:09:55;102113.31;;;-5.73;79.46
63946;BME280;50122;56.330;43.838;2022-12-17T04:12:40;102118.97;;;-5.64;79.50
63946;BME280;50122;56.330;43.838;2022-12-17T04:15:25;102102.28;;;-5.71;79.12
63946;BME280;50122;56.330;43.838;2022-12-17T04:18:11;102111.25;;;-5.64;79.02
63946;BME280;50122;56.330;43.838;2022-12-17T04:20:56;102110.50;;;-5.62;79.49
63946;BME280;50122;56.330;43.838;2022-12-17T04:23:41;102110.59;;;-5.60;79.45
63946;BME280;50122;56.330;43.838;2022-12-17T04:26:26;102055.06;;;-5.88;79.41
63946;BME280;50122;56.330;43.838;2022-12-17T04:29:11;102111.63;;;-5.56;79.51
63946;BME280;50122;56.330;43.838;2022-12-17T04:31:57;102100.13;;;-5.63;79.04
63946;BME280;50122;56.330;43.838;2022-12-17T04:34:42;102114.50;;;-5.50;79.58
63946;BME280;50122;56.330;43.838;2022-12-17T04:37:27;102113.78;;;-5.48;80.00
63946;BME280;50122;56.330;43.838;2022-12-17T04:40:13;102115.72;;;-5.44;79.94
63946;BME280;50122;56.330;43.838;2022-12-17T04:43:06;102111.69;;;-5.38;79.94
63946;BME280;50122;56.330;43.838;2022-12-17T04:45:52;102129.09;;;-5.34;79.73
63946;BME280;50122;56.330;43.838;2022-12-17T04:48:38;102106.53;;;-5.38;79.80
63946;BME280;50122;56.330;43.838;2022-12-17T04:51:24;102114.00;;;-5.27;80.04
63946;BME280;50122;56.330;43.838;2022-12-17T04:54:09;102069.09;;;-5.48;79.69
63946;BME280;50122;56.330;43.838;2022-12-17T04:56:55;102106.13;;;-5.30;79.67
63946;BME280;50122;56.330;43.838;2022-12-17T04:59:42;102087.44;;;-5.42;80.12
63946;BME280;50122;56.330;43.838;2022-12-17T05:02:30;102100.88;;;-5.31;79.82
63946;BME280;50122;56.330;43.838;2022-12-17T05:05:16;102115.78;;;-5.26;80.17
63946;BME280;50122;56.330;43.838;2022-12-17T05:08:03;102115.69;;;-5.27;79.62
63946;BME280;50122;56.330;43.838;2022-12-17T05:10:49;102114.78;;;-5.28;79.70
63946;BME280;50122;56.330;43.838;2022-12-17T05:13:34;102113.34;;;-5.22;79.99
